sensor_id;sensor_type;location;lat;lon;timestamp;P1;durP1;ratioP1;P2;durP2;ratioP2
19161;SDS011;9713;48.140;11.530;2022-10-16T00:03:30;4.87;;;2.10;;
19161;SDS011;9713;48.140;11.530;2022-10-16T00:07:20;4.77;;;1.80;;
19161;SDS011;9713;48.140;11.530;2022-10-16T00:11:05;3.57;;;1.90;;
19161;SDS011;9713;48.140;11.530;2022-10-16T00:14:51;3.23;;;2.00;;
19161;SDS011;9713;48.140;11.530;2022-10-16T00:18:52;5.60;;;2.07;;
19161;SDS011;9713;48.140;11.530;2022-10-16T00:22:43;2.20;;;1.60;;
19161;SDS011;9713;48.140;11.530;2022-10-16T00:26:29;5.67;;;1.90;;
19161;SDS011;9713;48.140;11.530;2022-10-16T00:30:14;5.33;;;1.90;;
19161;SDS011;9713;48.140;11.530;2022-10-16T00:33:59;6.57;;;1.90;;
19161;SDS011;9713;48.140;11.530;2022-10-16T00:37:57;2.00;;;1.57;;
19161;SDS011;9713;48.140;11.530;2022-10-16T00:41:42;6.97;;;2.00;;
19161;SDS011;9713;48.140;11.530;2022-10-16T00:45:26;6.23;;;1.80;;
19161;SDS011;9713;48.140;11.530;2022-10-16T00:49:14;3.30;;;1.90;;
19161;SDS011;9713;48.140;11.530;2022-10-16T00:53:06;1.97;;;1.50;;
19161;SDS011;9713;48.140;11.530;2022-10-16T00:56:48;3.37;;;1.90;;
19161;SDS011;9713;48.140;11.530;2022-10-16T01:00:33;3.07;;;1.90;;
19161;SDS011;9713;48.140;11.530;2022-10-16T01:04:16;3.50;;;1.50;;
19161;SDS011;9713;48.140;11.530;2022-10-16T01:08:03;2.03;;;1.33;;
19161;SDS011;9713;48.140;11.530;2022-10-16T01:11:52;4.47;;;1.70;;
19161;SDS011;9713;48.140;11.530;2022-10-16T01:15:42;2.17;;;1.60;;
19161;SDS011;9713;48.140;11.530;2022-10-16T01:19:35;3.27;;;1.57;;
19161;SDS011;9713;48.140;11.530;2022-10-16T01:23:48;1.83;;;1.30;;
19161;SDS011;9713;48.140;11.530;2022-10-16T01:27:38;4.63;;;1.50;;
19161;SDS011;9713;48.140;11.530;2022-10-16T01:31:23;1.80;;;1.47;;
19161;SDS011;9713;48.140;11.530;2022-10-16T01:35:09;3.57;;;1.40;;
19161;SDS011;9713;48.140;11.530;2022-10-16T01:39:13;2.70;;;1.50;;
19161;SDS011;9713;48.140;11.530;2022-10-16T01:42:59;2.93;;;1.23;;
19161;SDS011;9713;48.140;11.530;2022-10-16T01:46:43;1.57;;;1.30;;
19161;SDS011;9713;48.140;11.530;2022-10-16T01:50:31;2.10;;;1.43;;
19161;SDS011;9713;48.140;11.530;2022-10-16T01:54:27;2.97;;;1.30;;
19161;SDS011;9713;48.140;11.530;2022-10-16T01:58:12;4.63;;;1.50;;
19161;SDS011;9713;48.140;11.530;2022-10-16T02:01:56;5.30;;;1.40;;
19161;SDS011;9713;48.140;11.530;2022-10-16T02:05:46;3.50;;;1.20;;
19161;SDS011;9713;48.140;11.530;2022-10-16T02:09:41;2.00;;;1.40;;
19161;SDS011;9713;48.140;11.530;2022-10-16T02:13:28;2.90;;;1.20;;
19161;SDS011;9713;48.140;11.530;2022-10-16T02:17:13;5.83;;;1.57;;
19161;SDS011;9713;48.140;11.530;2022-10-16T02:21:05;2.00;;;1.47;;
19161;SDS011;9713;48.140;11.530;2022-10-16T02:25:01;4.77;;;1.70;;
19161;SDS011;9713;48.140;11.530;2022-10-16T02:28:51;2.33;;;1.50;;
19161;SDS011;9713;48.140;11.530;2022-10-16T02:32:38;2.10;;;1.40;;
19161;SDS011;9713;48.140;11.530;2022-10-16T02:36:26;3.63;;;1.40;;
19161;SDS011;9713;48.140;11.530;2022-10-16T02:40:14;1.67;;;1.27;;
19161;SDS011;9713;48.140;11.530;2022-10-16T02:44:03;1.90;;;1.50;;
19161;SDS011;9713;48.140;11.530;2022-10-16T02:47:46;2.90;;;1.50;;
19161;SDS011;9713;48.140;11.530;2022-10-16T02:51:29;2.20;;;1.40;;
19161;SDS011;9713;48.140;11.530;2022-10-16T02:55:26;2.30;;;1.20;;
19161;SDS011;9713;48.140;11.530;2022-10-16T02:59:11;3.67;;;1.17;;
19161;SDS011;9713;48.140;11.530;2022-10-16T03:02:54;3.07;;;1.47;;
19161;SDS011;9713;48.140;11.530;2022-10-16T03:06:37;1.83;;;1.40;;
19161;SDS011;9713;48.140;11.530;2022-10-16T03:10:32;1.37;;;1.10;;
19161;SDS011;9713;48.140;11.530;2022-10-16T03:14:16;2.87;;;1.37;;
19161;SDS011;9713;48.140;11.530;2022-10-16T03:17:59;3.37;;;1.37;;
19161;SDS011;9713;48.140;11.530;2022-10-16T03:21:42;1.80;;;1.40;;
19161;SDS011;9713;48.140;11.530;2022-10-16T03:25:32;3.20;;;1.30;;
19161;SDS011;9713;48.140;11.530;2022-10-16T03:29:16;3.30;;;1.20;;
19161;SDS011;9713;48.140;11.530;2022-10-16T03:32:59;1.80;;;1.20;;
19161;SDS011;9713;48.140;11.530;2022-10-16T03:36:45;4.40;;;1.30;;
19161;SDS011;9713;48.140;11.530;2022-10-16T03:40:47;5.03;;;1.60;;
19161;SDS011;9713;48.140;11.530;2022-10-16T03:44:31;3.00;;;1.30;;
19161;SDS011;9713;48.140;11.530;2022-10-16T03:48:14;2.27;;;1.30;;
19161;SDS011;9713;48.140;11.530;2022-10-16T03:51:59;4.03;;;1.40;;
19161;SDS011;9713;48.140;11.530;2022-10-16T03:55:45;3.40;;;1.43;;
19161;SDS011;9713;48.140;11.530;2022-10-16T03:59:27;3.47;;;1.40;;
19161;SDS011;9713;48.140;11.530;2022-10-16T04:03:11;7.90;;;1.60;;
19161;SDS011;9713;48.140;11.530;2022-10-16T04:06:54;2.97;;;1.70;;
19161;SDS011;9713;48.140;11.530;2022-10-16T04:10:37;3.03;;;1.50;;
19161;SDS011;9713;48.140;11.530;2022-10-16T04:14:19;2.40;;;1.80;;
19161;SDS011;9713;48.140;11.530;2022-10-16T04:18:05;2.77;;;1.80;;
19161;SDS011;9713;48.140;11.530;2022-10-16T04:21:49;2.17;;;1.57;;
19161;SDS011;9713;48.140;11.530;2022-10-16T04:25:32;3.10;;;1.70;;
19161;SDS011;9713;48.140;11.530;2022-10-16T04:29:15;3.70;;;1.90;;
19161;SDS011;9713;48.140;11.530;2022-10-16T04:32:57;5.07;;;1.90;;
19161;SDS011;9713;48.140;11.530;2022-10-16T04:36:41;2.53;;;1.63;;
19161;SDS011;9713;48.140;11.530;2022-10-16T04:40:25;2.70;;;1.70;;
19161;SDS011;9713;48.140;11.530;2022-10-16T04:44:08;4.07;;;1.87;;
19161;SDS011;9713;48.140;11.530;2022-10-16T04:47:50;4.80;;;1.80;;
19161;SDS011;9713;48.140;11.530;2022-10-16T04:51:33;3.40;;;1.60;;
19161;SDS011;9713;48.140;11.530;2022-10-16T04:55:17;3.30;;;1.90;;
19161;SDS011;9713;48.140;11.530;2022-10-16T04:59:01;4.73;;;1.60;;
19161;SDS011;9713;48.140;11.530;2022-10-16T05:02:43;4.70;;;1.83;;
19161;SDS011;9713;48.140;11.530;2022-10-16T05:06:26;2.13;;;1.70;;
19161;SDS011;9713;48.140;11.530;2022-10-16T05:10:09;6.20;;;1.50;;
19161;SDS011;9713;48.140;11.530;2022-10-16T05:13:52;2.10;;;1.70;;
19161;SDS011;9713;48.140;11.530;2022-10-16T05:17:37;2.20;;;1.37;;
19161;SDS011;9713;48.140;11.530;2022-10-16T05:21:24;2.03;;;1.70;;
19161;SDS011;9713;48.140;11.530;2022-10-16T05:25:07;2.20;;;1.80;;
19161;SDS011;9713;48.140;11.530;2022-10-16T05:28:50;2.80;;;1.63;;
19161;SDS011;9713;48.140;11.530;2022-10-16T05:32:33;4.07;;;1.90;;
19161;SDS011;9713;48.140;11.530;2022-10-16T05:36:17;3.17;;;1.80;;
19161;SDS011;9713;48.140;11.530;2022-10-16T05:40:00;2.40;;;1.60;;
19161;SDS011;9713;48.140;11.530;2022-10-16T05:43:43;2.73;;;1.83;;
19161;SDS011;9713;48.140;11.530;2022-10-16T05:47:26;3.33;;;1.60;;
19161;SDS011;9713;48.140;11.530;2022-10-16T05:51:11;2.83;;;1.90;;
19161;SDS011;9713;48.140;11.530;2022-10-16T05:54:59;5.43;;;1.97;;
19161;SDS011;9713;48.140;11.530;2022-10-16T05:59:08;3.73;;;1.83;;
19161;SDS011;9713;48.140;11.530;2022-10-16T06:02:52;2.63;;;1.70;;
19161;SDS011;9713;48.140;11.530;2022-10-16T06:06:34;3.83;;;2.00;;
19161;SDS011;9713;48.140;11.530;2022-10-16T06:10:19;8.80;;;1.80;;
19161;SDS011;9713;48.140;11.530;2022-10-16T06:14:02;3.73;;;2.07;;
19161;SDS011;9713;48.140;11.530;2022-10-16T06:17:48;4.67;;;1.90;;
19161;SDS011;9713;48.140;11.530;2022-10-16T06:21:30;2.50;;;1.90;;
19161;SDS011;9713;48.140;11.530;2022-10-16T06:25:13;4.03;;;1.90;;
19161;SDS011;9713;48.140;11.530;2022-10-16T06:28:58;3.17;;;2.30;;
19161;SDS011;9713;48.140;11.530;2022-10-16T06:32:42;3.97;;;2.07;;
19161;SDS011;9713;48.140;11.530;2022-10-16T06:36:24;2.57;;;2.10;;
19161;SDS011;9713;48.140;11.530;2022-10-16T06:40:08;5.33;;;2.00;;
19161;SDS011;9713;48.140;11.530;2022-10-16T06:43:55;5.70;;;1.80;;
19161;SDS011;9713;48.140;11.530;2022-10-16T06:47:39;2.73;;;2.07;;
19161;SDS011;9713;48.140;11.530;2022-10-16T06:51:22;7.37;;;2.60;;
19161;SDS011;9713;48.140;11.530;2022-10-16T06:55:06;3.93;;;1.93;;
19161;SDS011;9713;48.140;11.530;2022-10-16T06:58:50;3.33;;;1.93;;
19161;SDS011;9713;48.140;11.530;2022-10-16T07:02:33;3.70;;;2.23;;
19161;SDS011;9713;48.140;11.530;2022-10-16T07:06:18;4.73;;;2.37;;
19161;SDS011;9713;48.140;11.530;2022-10-16T07:10:02;2.47;;;1.70;;
19161;SDS011;9713;48.140;11.530;2022-10-16T07:13:45;2.87;;;2.00;;
19161;SDS011;9713;48.140;11.530;2022-10-16T07:17:35;2.93;;;2.07;;
19161;SDS011;9713;48.140;11.530;2022-10-16T07:21:19;3.90;;;2.13;;
19161;SDS011;9713;48.140;11.530;2022-10-16T07:25:02;3.57;;;2.10;;
19161;SDS011;9713;48.140;11.530;2022-10-16T07:28:46;2.50;;;2.00;;
19161;SDS011;9713;48.140;11.530;2022-10-16T07:32:29;2.40;;;2.03;;
19161;SDS011;9713;48.140;11.530;2022-10-16T07:36:11;2.20;;;1.67;;
19161;SDS011;9713;48.140;11.530;2022-10-16T07:39:58;2.60;;;1.90;;
19161;SDS011;9713;48.140;11.530;2022-10-16T07:43:44;2.47;;;1.80;;
19161;SDS011;9713;48.140;11.530;2022-10-16T07:47:27;2.33;;;1.80;;
19161;SDS011;9713;48.140;11.530;2022-10-16T07:51:15;2.70;;;1.90;;
19161;SDS011;9713;48.140;11.530;2022-10-16T07:55:00;3.20;;;2.17;;
19161;SDS011;9713;48.140;11.530;2022-10-16T07:58:42;2.93;;;1.80;;
19161;SDS011;9713;48.140;11.530;2022-10-16T08:02:26;3.43;;;1.73;;
19161;SDS011;9713;48.140;11.530;2022-10-16T08:06:08;3.93;;;2.00;;
19161;SDS011;9713;48.140;11.530;2022-10-16T08:09:51;3.37;;;1.90;;
19161;SDS011;9713;48.140;11.530;2022-10-16T08:13:35;3.77;;;1.70;;
19161;SDS011;9713;48.140;11.530;2022-10-16T08:17:18;3.27;;;2.10;;
19161;SDS011;9713;48.140;11.530;2022-10-16T08:21:01;3.33;;;2.10;;
19161;SDS011;9713;48.140;11.530;2022-10-16T08:24:44;3.57;;;1.80;;
19161;SDS011;9713;48.140;11.530;2022-10-16T08:28:26;3.40;;;1.97;;
19161;SDS011;9713;48.140;11.530;2022-10-16T08:32:10;3.20;;;1.67;;
19161;SDS011;9713;48.140;11.530;2022-10-16T08:35:53;5.83;;;2.00;;
19161;SDS011;9713;48.140;11.530;2022-10-16T08:39:36;2.27;;;1.83;;
19161;SDS011;9713;48.140;11.530;2022-10-16T08:43:31;3.30;;;1.63;;
19161;SDS011;9713;48.140;11.530;2022-10-16T08:47:26;2.53;;;1.80;;
19161;SDS011;9713;48.140;11.530;2022-10-16T08:51:19;4.97;;;1.77;;
19161;SDS011;9713;48.140;11.530;2022-10-16T08:55:03;2.97;;;1.87;;
19161;SDS011;9713;48.140;11.530;2022-10-16T08:58:46;3.70;;;1.90;;
19161;SDS011;9713;48.140;11.530;2022-10-16T09:02:36;3.67;;;1.83;;
19161;SDS011;9713;48.140;11.530;2022-10-16T09:06:26;3.30;;;1.73;;
19161;SDS011;9713;48.140;11.530;2022-10-16T09:10:17;2.30;;;1.63;;
19161;SDS011;9713;48.140;11.530;2022-10-16T09:14:07;2.53;;;1.80;;
19161;SDS011;9713;48.140;11.530;2022-10-16T09:18:04;1.93;;;1.63;;
19161;SDS011;9713;48.140;11.530;2022-10-16T09:21:50;2.43;;;1.93;;
19161;SDS011;9713;48.140;11.530;2022-10-16T09:25:34;2.33;;;1.83;;
19161;SDS011;9713;48.140;11.530;2022-10-16T09:29:18;2.80;;;1.77;;
19161;SDS011;9713;48.140;11.530;2022-10-16T09:33:03;5.53;;;1.90;;
19161;SDS011;9713;48.140;11.530;2022-10-16T09:36:46;2.33;;;1.90;;
19161;SDS011;9713;48.140;11.530;2022-10-16T09:40:30;2.17;;;1.67;;
19161;SDS011;9713;48.140;11.530;2022-10-16T09:44:17;4.73;;;1.77;;
19161;SDS011;9713;48.140;11.530;2022-10-16T09:48:09;2.40;;;1.80;;
19161;SDS011;9713;48.140;11.530;2022-10-16T09:52:02;2.70;;;1.90;;
19161;SDS011;9713;48.140;11.530;2022-10-16T09:55:48;2.33;;;1.40;;
19161;SDS011;9713;48.140;11.530;2022-10-16T09:59:32;4.53;;;1.60;;
19161;SDS011;9713;48.140;11.530;2022-10-16T10:03:16;3.70;;;1.80;;
19161;SDS011;9713;48.140;11.530;2022-10-16T10:07:21;2.90;;;2.00;;
19161;SDS011;9713;48.140;11.530;2022-10-16T10:11:08;1.90;;;1.50;;
19161;SDS011;9713;48.140;11.530;2022-10-16T10:14:56;2.45;;;1.70;;
19161;SDS011;9713;48.140;11.530;2022-10-16T10:18:41;5.18;;;1.70;;
19161;SDS011;9713;48.140;11.530;2022-10-16T10:22:25;2.15;;;1.42;;
19161;SDS011;9713;48.140;11.530;2022-10-16T10:26:11;1.30;;;1.20;;
19161;SDS011;9713;48.140;11.530;2022-10-16T10:30:00;2.83;;;1.37;;
19161;SDS011;9713;48.140;11.530;2022-10-16T10:33:48;2.67;;;1.60;;
19161;SDS011;9713;48.140;11.530;2022-10-16T10:37:43;2.35;;;1.60;;
19161;SDS011;9713;48.140;11.530;2022-10-16T10:41:53;2.67;;;1.50;;
19161;SDS011;9713;48.140;11.530;2022-10-16T10:45:42;4.30;;;2.33;;
19161;SDS011;9713;48.140;11.530;2022-10-16T10:49:33;3.58;;;2.45;;
19161;SDS011;9713;48.140;11.530;2022-10-16T10:53:31;4.57;;;3.17;;
19161;SDS011;9713;48.140;11.530;2022-10-16T10:57:20;2.90;;;2.22;;
19161;SDS011;9713;48.140;11.530;2022-10-16T11:01:06;2.55;;;1.30;;
19161;SDS011;9713;48.140;11.530;2022-10-16T11:04:59;1.60;;;1.30;;
19161;SDS011;9713;48.140;11.530;2022-10-16T11:09:02;3.20;;;1.35;;
19161;SDS011;9713;48.140;11.530;2022-10-16T11:12:50;4.72;;;3.60;;
19161;SDS011;9713;48.140;11.530;2022-10-16T11:16:35;6.53;;;2.97;;
19161;SDS011;9713;48.140;11.530;2022-10-16T11:20:23;2.70;;;2.07;;
19161;SDS011;9713;48.140;11.530;2022-10-16T11:24:09;3.78;;;1.20;;
19161;SDS011;9713;48.140;11.530;2022-10-16T11:28:00;2.65;;;0.80;;
19161;SDS011;9713;48.140;11.530;2022-10-16T11:31:45;0.70;;;0.60;;
19161;SDS011;9713;48.140;11.530;2022-10-16T11:35:34;1.48;;;1.25;;
19161;SDS011;9713;48.140;11.530;2022-10-16T11:39:22;1.50;;;0.90;;
19161;SDS011;9713;48.140;11.530;2022-10-16T11:43:10;2.58;;;2.00;;
19161;SDS011;9713;48.140;11.530;2022-10-16T11:46:58;5.03;;;3.08;;
19161;SDS011;9713;48.140;11.530;2022-10-16T11:51:09;2.15;;;1.60;;
19161;SDS011;9713;48.140;11.530;2022-10-16T11:54:57;1.73;;;1.13;;
19161;SDS011;9713;48.140;11.530;2022-10-16T11:58:45;1.35;;;1.02;;
19161;SDS011;9713;48.140;11.530;2022-10-16T12:02:35;1.98;;;1.10;;
19161;SDS011;9713;48.140;11.530;2022-10-16T12:06:27;2.00;;;1.70;;
19161;SDS011;9713;48.140;11.530;2022-10-16T12:10:18;3.33;;;1.60;;
19161;SDS011;9713;48.140;11.530;2022-10-16T12:14:18;2.40;;;1.20;;
19161;SDS011;9713;48.140;11.530;2022-10-16T12:18:02;1.88;;;1.10;;
19161;SDS011;9713;48.140;11.530;2022-10-16T12:21:47;1.95;;;1.40;;
19161;SDS011;9713;48.140;11.530;2022-10-16T12:25:31;2.45;;;0.90;;
19161;SDS011;9713;48.140;11.530;2022-10-16T12:29:23;0.93;;;0.77;;
19161;SDS011;9713;48.140;11.530;2022-10-16T12:33:19;2.17;;;1.60;;
19161;SDS011;9713;48.140;11.530;2022-10-16T12:37:11;1.20;;;0.90;;
19161;SDS011;9713;48.140;11.530;2022-10-16T12:40:58;1.30;;;0.80;;
19161;SDS011;9713;48.140;11.530;2022-10-16T12:44:42;2.60;;;1.10;;
19161;SDS011;9713;48.140;11.530;2022-10-16T12:48:25;1.10;;;0.70;;
19161;SDS011;9713;48.140;11.530;2022-10-16T12:52:34;2.10;;;0.90;;
19161;SDS011;9713;48.140;11.530;2022-10-16T12:56:19;2.38;;;1.20;;
19161;SDS011;9713;48.140;11.530;2022-10-16T13:00:10;2.25;;;0.95;;
19161;SDS011;9713;48.140;11.530;2022-10-16T13:04:10;1.98;;;0.80;;
19161;SDS011;9713;48.140;11.530;2022-10-16T13:08:15;1.10;;;0.80;;
19161;SDS011;9713;48.140;11.530;2022-10-16T13:12:19;1.27;;;1.10;;
19161;SDS011;9713;48.140;11.530;2022-10-16T13:16:18;2.05;;;0.80;;
19161;SDS011;9713;48.140;11.530;2022-10-16T13:20:09;1.33;;;1.10;;
19161;SDS011;9713;48.140;11.530;2022-10-16T13:24:01;3.42;;;2.40;;
19161;SDS011;9713;48.140;11.530;2022-10-16T13:27:52;1.52;;;1.00;;
19161;SDS011;9713;48.140;11.530;2022-10-16T13:31:37;2.97;;;1.17;;
19161;SDS011;9713;48.140;11.530;2022-10-16T13:35:23;2.47;;;1.30;;
19161;SDS011;9713;48.140;11.530;2022-10-16T13:39:11;3.20;;;2.20;;
19161;SDS011;9713;48.140;11.530;2022-10-16T13:42:59;4.75;;;1.60;;
19161;SDS011;9713;48.140;11.530;2022-10-16T13:46:42;2.67;;;1.00;;
19161;SDS011;9713;48.140;11.530;2022-10-16T13:50:25;2.70;;;0.65;;
19161;SDS011;9713;48.140;11.530;2022-10-16T13:54:16;1.70;;;0.70;;
19161;SDS011;9713;48.140;11.530;2022-10-16T13:58:11;0.93;;;0.75;;
19161;SDS011;9713;48.140;11.530;2022-10-16T14:01:55;1.73;;;0.98;;
19161;SDS011;9713;48.140;11.530;2022-10-16T14:05:40;1.15;;;0.70;;
19161;SDS011;9713;48.140;11.530;2022-10-16T14:09:28;1.77;;;0.85;;
19161;SDS011;9713;48.140;11.530;2022-10-16T14:13:30;1.48;;;0.95;;
19161;SDS011;9713;48.140;11.530;2022-10-16T14:17:14;3.35;;;1.08;;
19161;SDS011;9713;48.140;11.530;2022-10-16T14:21:02;3.05;;;1.00;;
19161;SDS011;9713;48.140;11.530;2022-10-16T14:24:48;3.22;;;1.02;;
19161;SDS011;9713;48.140;11.530;2022-10-16T14:28:33;1.55;;;0.90;;
19161;SDS011;9713;48.140;11.530;2022-10-16T14:32:20;1.33;;;1.00;;
19161;SDS011;9713;48.140;11.530;2022-10-16T14:36:09;5.45;;;1.08;;
19161;SDS011;9713;48.140;11.530;2022-10-16T14:39:56;3.03;;;1.40;;
19161;SDS011;9713;48.140;11.530;2022-10-16T14:43:40;1.73;;;1.00;;
19161;SDS011;9713;48.140;11.530;2022-10-16T14:47:26;2.20;;;1.30;;
19161;SDS011;9713;48.140;11.530;2022-10-16T14:51:11;3.72;;;1.20;;
19161;SDS011;9713;48.140;11.530;2022-10-16T14:54:57;2.65;;;1.40;;
19161;SDS011;9713;48.140;11.530;2022-10-16T14:58:40;3.13;;;1.67;;
19161;SDS011;9713;48.140;11.530;2022-10-16T15:02:25;3.50;;;1.60;;
19161;SDS011;9713;48.140;11.530;2022-10-16T15:06:10;2.97;;;1.50;;
19161;SDS011;9713;48.140;11.530;2022-10-16T15:09:53;1.65;;;1.30;;
19161;SDS011;9713;48.140;11.530;2022-10-16T15:13:39;1.88;;;1.05;;
19161;SDS011;9713;48.140;11.530;2022-10-16T15:17:22;1.25;;;1.10;;
19161;SDS011;9713;48.140;11.530;2022-10-16T15:21:05;1.33;;;1.08;;
19161;SDS011;9713;48.140;11.530;2022-10-16T15:24:48;3.60;;;1.40;;
19161;SDS011;9713;48.140;11.530;2022-10-16T15:28:31;1.90;;;1.27;;
19161;SDS011;9713;48.140;11.530;2022-10-16T15:32:15;3.92;;;1.52;;
19161;SDS011;9713;48.140;11.530;2022-10-16T15:35:58;2.20;;;1.40;;
19161;SDS011;9713;48.140;11.530;2022-10-16T15:39:41;3.53;;;1.33;;
19161;SDS011;9713;48.140;11.530;2022-10-16T15:43:24;4.15;;;1.63;;
19161;SDS011;9713;48.140;11.530;2022-10-16T15:47:07;4.10;;;1.73;;
19161;SDS011;9713;48.140;11.530;2022-10-16T15:50:51;8.57;;;2.15;;
19161;SDS011;9713;48.140;11.530;2022-10-16T15:54:34;4.80;;;2.17;;
19161;SDS011;9713;48.140;11.530;2022-10-16T15:58:16;5.65;;;2.25;;
19161;SDS011;9713;48.140;11.530;2022-10-16T16:01:59;6.85;;;2.70;;
19161;SDS011;9713;48.140;11.530;2022-10-16T16:05:42;5.22;;;2.50;;
19161;SDS011;9713;48.140;11.530;2022-10-16T16:09:29;4.53;;;2.17;;
19161;SDS011;9713;48.140;11.530;2022-10-16T16:13:12;4.30;;;2.35;;
19161;SDS011;9713;48.140;11.530;2022-10-16T16:16:55;5.00;;;3.10;;
19161;SDS011;9713;48.140;11.530;2022-10-16T16:20:38;5.85;;;2.40;;
19161;SDS011;9713;48.140;11.530;2022-10-16T16:24:21;3.70;;;2.10;;
19161;SDS011;9713;48.140;11.530;2022-10-16T16:28:05;3.97;;;2.08;;
19161;SDS011;9713;48.140;11.530;2022-10-16T16:31:48;3.10;;;2.20;;
19161;SDS011;9713;48.140;11.530;2022-10-16T16:35:30;4.07;;;2.33;;
19161;SDS011;9713;48.140;11.530;2022-10-16T16:39:13;3.75;;;1.88;;
19161;SDS011;9713;48.140;11.530;2022-10-16T16:42:56;3.40;;;2.17;;
19161;SDS011;9713;48.140;11.530;2022-10-16T16:46:40;4.13;;;2.25;;
19161;SDS011;9713;48.140;11.530;2022-10-16T16:50:24;3.60;;;2.33;;
19161;SDS011;9713;48.140;11.530;2022-10-16T16:54:06;3.03;;;2.05;;
19161;SDS011;9713;48.140;11.530;2022-10-16T16:57:50;2.17;;;1.58;;
19161;SDS011;9713;48.140;11.530;2022-10-16T17:01:32;3.42;;;2.22;;
19161;SDS011;9713;48.140;11.530;2022-10-16T17:05:17;2.40;;;1.90;;
19161;SDS011;9713;48.140;11.530;2022-10-16T17:09:00;3.33;;;1.80;;
19161;SDS011;9713;48.140;11.530;2022-10-16T17:12:43;2.78;;;1.88;;
19161;SDS011;9713;48.140;11.530;2022-10-16T17:16:27;3.05;;;2.20;;
19161;SDS011;9713;48.140;11.530;2022-10-16T17:20:12;4.55;;;2.80;;
19161;SDS011;9713;48.140;11.530;2022-10-16T17:23:57;5.07;;;2.92;;
19161;SDS011;9713;48.140;11.530;2022-10-16T17:27:39;5.28;;;2.85;;
19161;SDS011;9713;48.140;11.530;2022-10-16T17:31:23;4.97;;;3.38;;
19161;SDS011;9713;48.140;11.530;2022-10-16T17:35:07;7.28;;;4.22;;
19161;SDS011;9713;48.140;11.530;2022-10-16T17:38:50;6.47;;;4.05;;
19161;SDS011;9713;48.140;11.530;2022-10-16T17:42:34;5.72;;;4.15;;
19161;SDS011;9713;48.140;11.530;2022-10-16T17:46:18;8.98;;;4.00;;
19161;SDS011;9713;48.140;11.530;2022-10-16T17:50:01;8.70;;;4.60;;
19161;SDS011;9713;48.140;11.530;2022-10-16T17:53:46;9.70;;;5.82;;
19161;SDS011;9713;48.140;11.530;2022-10-16T17:57:29;7.63;;;4.93;;
19161;SDS011;9713;48.140;11.530;2022-10-16T18:01:14;8.18;;;3.95;;
19161;SDS011;9713;48.140;11.530;2022-10-16T18:04:58;6.93;;;3.92;;
19161;SDS011;9713;48.140;11.530;2022-10-16T18:08:41;11.20;;;5.63;;
19161;SDS011;9713;48.140;11.530;2022-10-16T18:12:23;12.23;;;6.97;;
19161;SDS011;9713;48.140;11.530;2022-10-16T18:16:08;10.60;;;6.78;;
19161;SDS011;9713;48.140;11.530;2022-10-16T18:19:53;8.98;;;4.80;;
19161;SDS011;9713;48.140;11.530;2022-10-16T18:23:36;22.02;;;11.80;;
19161;SDS011;9713;48.140;11.530;2022-10-16T18:27:20;24.15;;;12.52;;
19161;SDS011;9713;48.140;11.530;2022-10-16T18:31:03;13.73;;;8.57;;
19161;SDS011;9713;48.140;11.530;2022-10-16T18:34:47;9.00;;;6.03;;
19161;SDS011;9713;48.140;11.530;2022-10-16T18:38:31;14.70;;;7.22;;
19161;SDS011;9713;48.140;11.530;2022-10-16T18:42:14;11.80;;;7.03;;
19161;SDS011;9713;48.140;11.530;2022-10-16T18:45:57;8.80;;;5.85;;
19161;SDS011;9713;48.140;11.530;2022-10-16T18:49:41;10.82;;;4.97;;
19161;SDS011;9713;48.140;11.530;2022-10-16T18:53:24;8.85;;;4.45;;
19161;SDS011;9713;48.140;11.530;2022-10-16T18:57:08;8.25;;;4.60;;
19161;SDS011;9713;48.140;11.530;2022-10-16T19:00:51;6.75;;;4.03;;
19161;SDS011;9713;48.140;11.530;2022-10-16T19:04:33;6.27;;;4.20;;
19161;SDS011;9713;48.140;11.530;2022-10-16T19:08:17;8.70;;;4.63;;
19161;SDS011;9713;48.140;11.530;2022-10-16T19:11:59;15.82;;;7.75;;
19161;SDS011;9713;48.140;11.530;2022-10-16T19:15:44;8.93;;;4.32;;
19161;SDS011;9713;48.140;11.530;2022-10-16T19:19:38;6.60;;;3.80;;
19161;SDS011;9713;48.140;11.530;2022-10-16T19:23:21;7.50;;;4.57;;
19161;SDS011;9713;48.140;11.530;2022-10-16T19:27:04;9.25;;;4.47;;
19161;SDS011;9713;48.140;11.530;2022-10-16T19:30:48;9.35;;;5.20;;
19161;SDS011;9713;48.140;11.530;2022-10-16T19:34:31;8.48;;;4.68;;
19161;SDS011;9713;48.140;11.530;2022-10-16T19:38:14;7.77;;;4.80;;
19161;SDS011;9713;48.140;11.530;2022-10-16T19:41:57;8.53;;;4.43;;
19161;SDS011;9713;48.140;11.530;2022-10-16T19:45:39;7.80;;;3.90;;
19161;SDS011;9713;48.140;11.530;2022-10-16T19:49:24;6.63;;;4.27;;
19161;SDS011;9713;48.140;11.530;2022-10-16T19:53:07;6.07;;;3.53;;
19161;SDS011;9713;48.140;11.530;2022-10-16T19:56:50;5.22;;;3.10;;
19161;SDS011;9713;48.140;11.530;2022-10-16T20:00:33;5.57;;;3.90;;
19161;SDS011;9713;48.140;11.530;2022-10-16T20:04:15;6.30;;;4.33;;
19161;SDS011;9713;48.140;11.530;2022-10-16T20:08:00;8.73;;;5.40;;
19161;SDS011;9713;48.140;11.530;2022-10-16T20:11:44;10.63;;;6.33;;
19161;SDS011;9713;48.140;11.530;2022-10-16T20:15:26;11.83;;;6.17;;
19161;SDS011;9713;48.140;11.530;2022-10-16T20:19:09;8.30;;;4.90;;
19161;SDS011;9713;48.140;11.530;2022-10-16T20:22:52;8.07;;;4.00;;
19161;SDS011;9713;48.140;11.530;2022-10-16T20:26:36;4.73;;;2.80;;
19161;SDS011;9713;48.140;11.530;2022-10-16T20:30:19;7.10;;;3.27;;
19161;SDS011;9713;48.140;11.530;2022-10-16T20:34:03;6.37;;;2.57;;
19161;SDS011;9713;48.140;11.530;2022-10-16T20:37:46;3.63;;;2.97;;
19161;SDS011;9713;48.140;11.530;2022-10-16T20:41:29;5.93;;;3.10;;
19161;SDS011;9713;48.140;11.530;2022-10-16T20:45:13;5.43;;;3.50;;
19161;SDS011;9713;48.140;11.530;2022-10-16T20:48:57;6.80;;;3.67;;
19161;SDS011;9713;48.140;11.530;2022-10-16T20:52:51;9.97;;;4.67;;
19161;SDS011;9713;48.140;11.530;2022-10-16T20:56:37;6.03;;;4.20;;
19161;SDS011;9713;48.140;11.530;2022-10-16T21:00:24;4.87;;;3.83;;
19161;SDS011;9713;48.140;11.530;2022-10-16T21:04:07;6.33;;;3.80;;
19161;SDS011;9713;48.140;11.530;2022-10-16T21:07:50;8.00;;;3.57;;
19161;SDS011;9713;48.140;11.530;2022-10-16T21:11:34;5.77;;;3.13;;
19161;SDS011;9713;48.140;11.530;2022-10-16T21:15:24;6.97;;;3.87;;
19161;SDS011;9713;48.140;11.530;2022-10-16T21:19:07;6.53;;;4.10;;
19161;SDS011;9713;48.140;11.530;2022-10-16T21:22:53;5.60;;;3.30;;
19161;SDS011;9713;48.140;11.530;2022-10-16T21:26:39;6.17;;;3.40;;
19161;SDS011;9713;48.140;11.530;2022-10-16T21:30:23;6.73;;;3.57;;
19161;SDS011;9713;48.140;11.530;2022-10-16T21:34:06;5.77;;;3.67;;
19161;SDS011;9713;48.140;11.530;2022-10-16T21:37:49;4.60;;;3.43;;
19161;SDS011;9713;48.140;11.530;2022-10-16T21:41:38;8.00;;;4.33;;
19161;SDS011;9713;48.140;11.530;2022-10-16T21:45:23;6.97;;;3.70;;
19161;SDS011;9713;48.140;11.530;2022-10-16T21:49:09;5.43;;;3.63;;
19161;SDS011;9713;48.140;11.530;2022-10-16T21:52:54;5.33;;;3.40;;
19161;SDS011;9713;48.140;11.530;2022-10-16T21:56:37;6.20;;;3.23;;
19161;SDS011;9713;48.140;11.530;2022-10-16T22:00:20;5.90;;;3.90;;
19161;SDS011;9713;48.140;11.530;2022-10-16T22:04:07;5.10;;;3.43;;
19161;SDS011;9713;48.140;11.530;2022-10-16T22:07:51;7.37;;;3.40;;
19161;SDS011;9713;48.140;11.530;2022-10-16T22:11:35;8.90;;;3.10;;
19161;SDS011;9713;48.140;11.530;2022-10-16T22:15:22;5.30;;;2.80;;
19161;SDS011;9713;48.140;11.530;2022-10-16T22:19:09;5.50;;;2.80;;
19161;SDS011;9713;48.140;11.530;2022-10-16T22:22:53;5.37;;;2.73;;
19161;SDS011;9713;48.140;11.530;2022-10-16T22:26:36;5.67;;;2.53;;
19161;SDS011;9713;48.140;11.530;2022-10-16T22:30:19;6.17;;;2.60;;
19161;SDS011;9713;48.140;11.530;2022-10-16T22:34:02;4.13;;;2.50;;
19161;SDS011;9713;48.140;11.530;2022-10-16T22:37:47;7.57;;;2.40;;
19161;SDS011;9713;48.140;11.530;2022-10-16T22:41:31;8.30;;;2.57;;
19161;SDS011;9713;48.140;11.530;2022-10-16T22:45:17;4.80;;;2.50;;